Time;durP1;ratioP1;P1;durP2;ratioP2;P2;SDS_P1;SDS_P2;PMS_P1;PMS_P2;Temp;Humidity;BMP_temperature;BMP_pressure;BME280_temperature;BME280_humidity;BME280_pressure;Samples;Min_cycle;Max_cycle;Signal;HPM_P1;HPM_P2
2023/04/24 00:01:14;;;;;;;8.50;1.85;;;;;;;13.98;79.68;98887.91;4946721;28;20049;-88
2023/04/24 00:03:41;;;;;;;5.47;1.80;;;;;;;14.02;79.14;98886.56;4935863;28;20050;-88
2023/04/24 00:06:08;;;;;;;6.22;1.88;;;;;;;14.03;79.25;98880.19;4954916;28;20051;-87
2023/04/24 00:08:36;;;;;;;6.35;2.10;;;;;;;13.98;79.65;98877.25;4932139;28;20059;-89
2023/04/24 00:11:03;;;;;;;8.02;1.95;;;;;;;13.98;80.01;98869.22;4947723;28;20047;-87
2023/04/24 00:13:30;;;;;;;5.35;1.73;;;;;;;13.98;80.20;98869.22;4940999;28;20105;-86
2023/04/24 00:15:56;;;;;;;4.32;2.50;;;;;;;14.04;80.27;98870.34;4944698;28;20047;-87
2023/04/24 00:18:23;;;;;;;8.75;2.03;;;;;;;14.01;80.13;98868.03;4945465;28;20054;-87
2023/04/24 00:20:50;;;;;;;3.25;1.80;;;;;;;14.01;80.46;98865.38;4957581;28;20446;-87
2023/04/24 00:23:16;;;;;;;3.40;1.65;;;;;;;13.95;80.68;98861.59;4926847;28;20047;-87
2023/04/24 00:25:43;;;;;;;7.47;2.13;;;;;;;14.03;80.06;98858.00;4947727;28;20482;-87
2023/04/24 00:28:10;;;;;;;7.47;2.03;;;;;;;13.94;80.13;98859.91;4927549;28;20410;-87
2023/04/24 00:30:37;;;;;;;8.35;2.22;;;;;;;13.94;80.54;98862.59;4915411;28;20044;-87
2023/04/24 00:33:04;;;;;;;6.32;2.25;;;;;;;13.96;80.09;98857.09;4926045;28;20133;-87
2023/04/24 00:35:31;;;;;;;8.35;2.05;;;;;;;13.95;80.50;98874.13;4947729;28;20060;-88
2023/04/24 00:37:58;;;;;;;6.28;1.98;;;;;;;13.95;80.43;98866.94;4937554;28;20406;-87
2023/04/24 00:40:25;;;;;;;6.78;2.13;;;;;;;13.93;80.56;98865.44;4956183;28;20043;-87
2023/04/24 00:42:52;;;;;;;8.85;2.55;;;;;;;13.89;80.60;98862.28;4952936;28;26030;-88
2023/04/24 00:45:19;;;;;;;7.32;2.30;;;;;;;13.96;80.38;98871.25;4930352;28;20106;-87
2023/04/24 00:47:46;;;;;;;4.32;1.90;;;;;;;13.94;80.36;98864.44;4960160;28;20059;-87
2023/04/24 00:50:14;;;;;;;8.77;1.98;;;;;;;13.93;80.15;98868.94;4925996;28;20054;-86
2023/04/24 00:52:41;;;;;;;6.35;2.80;;;;;;;13.99;80.26;98868.25;4929445;28;20502;-86
2023/04/24 00:55:08;;;;;;;3.80;2.15;;;;;;;13.97;79.96;98862.25;4947159;28;20769;-87
2023/04/24 00:57:35;;;;;;;8.93;3.55;;;;;;;13.94;80.03;98862.59;4933176;28;20043;-87
2023/04/24 01:00:03;;;;;;;3.65;1.80;;;;;;;14.01;79.46;98860.03;4947654;28;20438;-87
2023/04/24 01:02:30;;;;;;;5.88;1.80;;;;;;;13.96;79.61;98855.22;4947216;28;20066;-87
2023/04/24 01:04:57;;;;;;;10.63;2.10;;;;;;;14.00;79.39;98861.88;4930221;28;20479;-87
2023/04/24 01:07:24;;;;;;;6.50;2.03;;;;;;;13.92;79.52;98861.97;4950181;28;20051;-87
2023/04/24 01:09:51;;;;;;;6.25;1.75;;;;;;;13.97;79.92;98858.72;4945375;28;20654;-87
2023/04/24 01:12:19;;;;;;;5.15;1.83;;;;;;;14.01;79.39;98854.69;4929727;28;20042;-87
2023/04/24 01:14:46;;;;;;;3.22;1.33;;;;;;;13.88;80.29;98853.47;4926906;28;20051;-87
2023/04/24 01:17:15;;;;;;;13.40;3.25;;;;;;;13.93;79.91;98849.44;4927561;28;20046;-87
2023/04/24 01:19:44;;;;;;;4.68;1.88;;;;;;;13.97;79.71;98848.91;4923295;28;20069;-87
2023/04/24 01:22:15;;;;;;;3.67;1.45;;;;;;;13.83;80.37;98849.69;4937172;28;20039;-87
2023/04/24 01:24:42;;;;;;;4.88;1.70;;;;;;;13.85;80.91;98842.34;4930447;28;20507;-87
2023/04/24 01:27:11;;;;;;;3.40;1.90;;;;;;;13.93;80.69;98842.25;4929223;28;20047;-87
2023/04/24 01:29:38;;;;;;;4.53;1.70;;;;;;;13.85;80.63;98839.66;4939491;28;20115;-87
2023/04/24 01:32:05;;;;;;;3.63;1.90;;;;;;;13.87;80.30;98830.47;4938521;28;20053;-88
2023/04/24 01:34:33;;;;;;;4.40;1.90;;;;;;;13.82;80.08;98840.88;4926897;28;20434;-88
2023/04/24 01:37:00;;;;;;;8.18;2.00;;;;;;;13.82;80.21;98835.53;4931082;28;20128;-87
2023/04/24 01:39:28;;;;;;;3.92;1.70;;;;;;;13.84;80.43;98838.00;4958042;28;20055;-87
2023/04/24 01:41:55;;;;;;;4.75;1.98;;;;;;;13.87;80.30;98837.66;4934670;28;20055;-87
2023/04/24 01:44:22;;;;;;;4.38;1.85;;;;;;;13.83;80.43;98836.34;4936677;28;20058;-88
2023/04/24 01:46:50;;;;;;;14.95;3.70;;;;;;;13.80;80.89;98831.38;4945122;28;20154;-86
2023/04/24 01:49:17;;;;;;;5.78;1.67;;;;;;;13.78;80.77;98830.72;4944741;28;20584;-87
2023/04/24 01:51:44;;;;;;;4.88;2.92;;;;;;;13.76;81.24;98836.22;4933305;28;20573;-87
2023/04/24 01:54:11;;;;;;;4.38;1.73;;;;;;;13.81;81.03;98827.69;4942134;28;20054;-86
2023/04/24 01:56:42;;;;;;;7.88;1.73;;;;;;;13.74;80.90;98824.94;4926271;28;20055;-87
2023/04/24 01:59:13;;;;;;;3.17;1.70;;;;;;;13.76;80.44;98830.91;4927786;28;20542;-87
2023/04/24 02:01:39;;;;;;;7.20;1.85;;;;;;;13.79;80.50;98825.22;4938759;28;20042;-87
2023/04/24 02:04:07;;;;;;;8.13;2.17;;;;;;;13.76;80.59;98830.06;4938037;28;20062;-87
2023/04/24 02:06:35;;;;;;;3.15;1.65;;;;;;;13.77;80.53;98826.41;4954652;28;20750;-87
2023/04/24 02:09:02;;;;;;;3.50;1.80;;;;;;;13.70;80.61;98828.13;4912270;28;20581;-87
2023/04/24 02:11:30;;;;;;;3.75;1.70;;;;;;;13.68;80.59;98822.97;4936429;28;20050;-87
2023/04/24 02:13:57;;;;;;;10.30;1.75;;;;;;;13.64;81.00;98813.69;4925243;28;20126;-86
2023/04/24 02:16:23;;;;;;;5.57;2.00;;;;;;;13.67;80.60;98816.00;4944702;28;20074;-87
2023/04/24 02:18:50;;;;;;;2.78;1.67;;;;;;;13.66;80.50;98820.50;4968612;28;20043;-88
2023/04/24 02:21:17;;;;;;;4.35;1.40;;;;;;;13.70;80.59;98812.13;4940229;28;20180;-87
2023/04/24 02:23:44;;;;;;;4.88;1.60;;;;;;;13.73;80.47;98811.75;4940486;28;20131;-88
2023/04/24 02:26:12;;;;;;;4.80;1.83;;;;;;;13.69;80.59;98813.97;4941683;28;20526;-87
2023/04/24 02:28:39;;;;;;;5.35;1.70;;;;;;;13.67;80.74;98819.47;4944792;28;20040;-87
2023/04/24 02:31:06;;;;;;;7.68;1.60;;;;;;;13.70;80.68;98812.13;4942962;28;20043;-87
2023/04/24 02:33:33;;;;;;;8.88;3.22;;;;;;;13.68;81.05;98813.13;4968813;28;20067;-87
2023/04/24 02:36:00;;;;;;;3.53;1.55;;;;;;;13.70;79.66;98812.13;4944652;28;20050;-87
2023/04/24 02:38:26;;;;;;;8.45;1.90;;;;;;;13.69;79.81;98808.66;4923602;28;20101;-87
2023/04/24 02:40:53;;;;;;;7.65;2.10;;;;;;;13.68;79.55;98814.97;4925045;28;20411;-87
2023/04/24 02:43:20;;;;;;;4.20;1.58;;;;;;;13.64;79.45;98814.50;4955453;28;20065;-87
2023/04/24 02:45:47;;;;;;;9.25;1.65;;;;;;;13.61;79.55;98808.69;4923284;28;20756;-86
2023/04/24 02:48:14;;;;;;;3.72;1.83;;;;;;;13.56;79.40;98813.75;4915682;28;20106;-89
2023/04/24 02:50:41;;;;;;;9.43;1.85;;;;;;;13.53;79.52;98812.25;4922753;28;20054;-87
2023/04/24 02:53:07;;;;;;;5.38;1.77;;;;;;;13.55;79.43;98820.91;4946962;28;20118;-87
2023/04/24 02:55:34;;;;;;;4.55;1.77;;;;;;;13.51;79.23;98822.31;4970249;28;20062;-87
2023/04/24 02:58:01;;;;;;;13.20;4.03;;;;;;;13.48;79.33;98813.81;4947543;28;20046;-86
2023/04/24 03:00:28;;;;;;;115.18;29.67;;;;;;;13.45;78.71;98815.00;4914044;28;20494;-87
2023/04/24 03:02:55;;;;;;;163.73;39.22;;;;;;;13.52;78.08;98815.13;4924872;28;20454;-87
2023/04/24 03:05:21;;;;;;;85.50;24.42;;;;;;;13.49;78.36;98818.16;4927862;28;20051;-86
2023/04/24 03:07:48;;;;;;;36.63;12.75;;;;;;;13.53;78.44;98811.44;4940760;28;20046;-87
2023/04/24 03:10:15;;;;;;;32.25;10.57;;;;;;;13.50;78.63;98815.28;4924119;28;20137;-87
2023/04/24 03:12:42;;;;;;;14.32;6.05;;;;;;;13.44;78.75;98813.34;4930046;28;20501;-86
2023/04/24 03:15:09;;;;;;;12.40;5.18;;;;;;;13.43;79.01;98809.88;4939619;28;20066;-86
2023/04/24 03:17:36;;;;;;;10.90;4.88;;;;;;;13.50;78.91;98806.47;4946467;28;20046;-88
2023/04/24 03:20:05;;;;;;;8.98;2.60;;;;;;;13.45;78.57;98805.16;4959519;28;20451;-87
2023/04/24 03:22:33;;;;;;;4.40;2.15;;;;;;;13.42;78.68;98802.84;4951209;28;20518;-87
2023/04/24 03:25:01;;;;;;;6.88;3.13;;;;;;;13.43;78.58;98803.69;4967344;28;20081;-89
2023/04/24 03:27:28;;;;;;;8.73;3.45;;;;;;;13.42;78.41;98797.53;4952010;28;20051;-88
2023/04/24 03:30:00;;;;;;;8.50;4.32;;;;;;;13.37;78.86;98801.75;4949919;28;20055;-87
2023/04/24 03:32:39;;;;;;;6.47;3.20;;;;;;;13.43;78.48;98801.00;4931430;28;20050;-87
2023/04/24 03:35:08;;;;;;;7.80;2.65;;;;;;;13.42;78.24;98800.19;4937566;28;20046;-86
2023/04/24 03:37:35;;;;;;;8.52;3.20;;;;;;;13.41;78.34;98803.88;4949497;28;20509;-86
2023/04/24 03:40:24;;;;;;;8.20;3.72;;;;;;;13.41;78.87;98813.72;4941629;28;20050;-88
2023/04/24 03:42:51;;;;;;;7.93;3.42;;;;;;;13.44;78.84;98826.69;4959994;28;20042;-86
2023/04/24 03:45:18;;;;;;;7.30;2.13;;;;;;;13.47;78.58;98829.00;4941776;28;20063;-87
2023/04/24 03:47:48;;;;;;;6.15;3.05;;;;;;;13.51;79.29;98821.44;4929657;28;20079;-86
2023/04/24 03:50:15;;;;;;;4.13;1.92;;;;;;;13.77;78.30;98826.41;4962133;28;20051;-88
2023/04/24 03:52:43;;;;;;;11.63;2.38;;;;;;;13.74;77.41;98824.94;4942066;28;20055;-85
2023/04/24 03:55:16;;;;;;;10.13;1.58;;;;;;;13.81;76.78;98833.03;4932792;28;20051;-85
2023/04/24 03:57:45;;;;;;;11.23;1.67;;;;;;;13.79;77.25;98849.25;4947158;28;24728;-86
2023/04/24 04:00:20;;;;;;;4.15;1.30;;;;;;;13.87;76.57;98864.34;4943149;28;20499;-86
2023/04/24 04:02:55;;;;;;;6.07;1.55;;;;;;;13.86;76.30;98873.34;4941410;28;20053;-85
2023/04/24 04:05:22;;;;;;;7.57;2.08;;;;;;;13.80;76.28;98872.22;4949556;28;20055;-86
2023/04/24 04:07:49;;;;;;;6.40;2.35;;;;;;;13.80;74.95;98880.22;4943008;28;20430;-85
2023/04/24 04:10:17;;;;;;;8.18;2.70;;;;;;;13.74;75.13;98888.13;4945899;28;20045;-86
2023/04/24 04:12:43;;;;;;;5.75;2.17;;;;;;;13.69;74.40;98872.66;4956979;28;20047;-86
2023/04/24 04:15:10;;;;;;;6.45;2.22;;;;;;;13.55;75.24;98879.59;4930719;28;20622;-85
2023/04/24 04:17:38;;;;;;;4.70;2.97;;;;;;;13.51;75.06;98874.78;4954946;28;20058;-86
2023/04/24 04:20:09;;;;;;;8.50;3.55;;;;;;;13.41;75.23;98875.06;4930942;28;20043;-86
2023/04/24 04:22:38;;;;;;;7.50;3.08;;;;;;;13.36;75.68;98882.75;4960813;28;20446;-86
2023/04/24 04:25:08;;;;;;;4.75;2.33;;;;;;;13.27;76.24;98889.13;4932474;28;20043;-86
2023/04/24 04:27:36;;;;;;;7.18;3.00;;;;;;;13.22;76.61;98892.28;4956255;28;20055;-86
2023/04/24 04:30:09;;;;;;;;;;;;;;;12.80;78.70;98899.66;4954218;28;20051;-86
2023/04/24 04:32:47;;;;;;;6.05;2.72;;;;;;;13.07;77.72;98905.53;4945985;28;19957;-86
2023/04/24 04:35:14;;;;;;;7.72;3.10;;;;;;;13.06;77.51;98906.53;4956287;28;20126;-86
2023/04/24 04:37:41;;;;;;;8.43;2.80;;;;;;;13.09;78.00;98910.69;4957196;28;20114;-86
2023/04/24 04:40:28;;;;;;;6.50;3.28;;;;;;;13.02;78.64;98910.56;4955473;28;20079;-85
2023/04/24 04:43:00;;;;;;;8.75;3.92;;;;;;;12.96;79.80;98920.06;4945366;28;20047;-86
2023/04/24 04:45:32;;;;;;;5.75;3.03;;;;;;;13.01;79.26;98912.38;4947232;28;20062;-86
2023/04/24 04:48:34;;;;;;;8.52;3.47;;;;;;;12.88;80.28;98919.28;4933360;28;20486;-86
2023/04/24 04:51:04;;;;;;;7.75;4.15;;;;;;;12.88;80.12;98922.78;4929395;28;20055;-86
2023/04/24 04:53:31;;;;;;;6.97;4.30;;;;;;;12.80;80.05;98934.31;4946195;28;20392;-86
2023/04/24 04:55:59;;;;;;;9.63;4.45;;;;;;;12.91;78.87;98932.25;4952035;28;20043;-86
2023/04/24 04:58:32;;;;;;;7.32;4.30;;;;;;;12.85;79.14;98941.78;4955120;28;20050;-86
2023/04/24 05:01:00;;;;;;;6.55;3.90;;;;;;;12.82;79.29;98934.13;4945471;28;20053;-85
2023/04/24 05:03:32;;;;;;;8.77;3.88;;;;;;;12.85;78.57;98947.13;4954285;28;20051;-86
2023/04/24 05:06:06;;;;;;;10.52;3.67;;;;;;;12.90;77.91;98949.22;4956717;28;20047;-86
2023/04/24 05:08:35;;;;;;;11.52;3.40;;;;;;;12.91;77.70;98943.75;4955383;28;20043;-86
2023/04/24 05:11:04;;;;;;;7.85;4.28;;;;;;;12.85;77.69;98954.25;4944265;28;20090;-87
2023/04/24 05:13:31;;;;;;;8.88;4.25;;;;;;;12.88;77.25;98962.75;4940776;28;20545;-85
2023/04/24 05:16:12;;;;;;;6.07;3.55;;;;;;;12.93;76.56;98962.25;4945776;28;20122;-85
2023/04/24 05:18:39;;;;;;;8.85;3.85;;;;;;;12.91;76.22;98964.25;4926754;28;20058;-85
2023/04/24 05:21:09;;;;;;;13.40;4.13;;;;;;;12.96;75.49;98967.22;4929357;28;20054;-86
2023/04/24 05:23:38;;;;;;;10.05;4.63;;;;;;;12.99;75.23;98973.03;4928871;28;20056;-86
2023/04/24 05:26:05;;;;;;;10.13;4.38;;;;;;;12.94;75.09;98962.03;4930588;28;20046;-86
2023/04/24 05:28:36;;;;;;;11.00;4.60;;;;;;;12.97;74.71;98964.38;4940827;28;20105;-86
2023/04/24 05:31:07;;;;;;;9.77;4.68;;;;;;;13.09;74.79;98974.66;4946645;28;20047;-86
2023/04/24 05:33:34;;;;;;;10.10;4.95;;;;;;;13.19;74.54;98978.78;4943639;28;20043;-85
2023/04/24 05:36:01;;;;;;;11.00;4.35;;;;;;;13.17;75.04;98975.44;4956159;28;20054;-86
2023/04/24 05:38:28;;;;;;;11.77;5.47;;;;;;;13.23;74.49;98982.75;4930771;28;20050;-85
2023/04/24 05:40:55;;;;;;;12.85;5.00;;;;;;;13.35;73.43;98996.56;4950470;28;20110;-85
2023/04/24 05:43:21;;;;;;;11.88;5.22;;;;;;;13.48;73.38;99001.31;4953871;28;20051;-85
2023/04/24 05:45:49;;;;;;;11.90;5.45;;;;;;;13.42;72.63;99004.69;4966336;28;20043;-86
2023/04/24 05:48:17;;;;;;;14.13;4.95;;;;;;;13.44;72.85;99010.69;4946515;28;20058;-85
2023/04/24 05:50:44;;;;;;;12.90;5.97;;;;;;;13.53;72.75;99008.81;4952832;28;20043;-86
2023/04/24 05:53:11;;;;;;;12.07;4.60;;;;;;;13.52;72.90;99012.50;4950336;28;20403;-85
2023/04/24 05:55:38;;;;;;;13.18;4.95;;;;;;;13.55;71.82;99007.63;4966414;28;20051;-85
2023/04/24 05:58:05;;;;;;;14.38;5.90;;;;;;;13.63;71.83;99015.56;4943624;28;20431;-86
2023/04/24 06:00:35;;;;;;;12.15;5.05;;;;;;;13.69;71.38;99011.41;4941252;28;20043;-86
2023/04/24 06:03:06;;;;;;;13.98;5.07;;;;;;;13.71;71.47;99025.38;4956383;28;20494;-86
2023/04/24 06:05:33;;;;;;;17.48;7.57;;;;;;;13.72;71.23;99015.56;4955774;28;20063;-85
2023/04/24 06:08:02;;;;;;;10.82;5.03;;;;;;;13.78;70.79;99020.16;4944459;28;20486;-86
2023/04/24 06:10:33;;;;;;;15.73;6.03;;;;;;;13.79;70.57;99020.00;4940279;28;20113;-85
2023/04/24 06:13:01;;;;;;;12.00;6.32;;;;;;;13.74;70.35;99017.03;4940991;28;20050;-86
2023/04/24 06:15:30;;;;;;;20.83;7.65;;;;;;;13.74;70.67;99017.03;4944054;28;20503;-85
2023/04/24 06:18:02;;;;;;;18.30;6.28;;;;;;;13.81;70.03;99009.97;4921121;28;20105;-86
2023/04/24 06:20:29;;;;;;;17.63;6.55;;;;;;;13.82;69.67;99014.31;4955388;28;20403;-86
2023/04/24 06:22:56;;;;;;;19.40;7.03;;;;;;;13.85;69.26;99013.94;4960709;28;20093;-86
2023/04/24 06:25:26;;;;;;;21.77;7.13;;;;;;;13.83;68.45;99021.31;4939005;28;20580;-86
2023/04/24 06:27:53;;;;;;;16.98;6.97;;;;;;;13.92;68.87;99021.25;4924846;28;20054;-84
2023/04/24 06:30:20;;;;;;;15.60;6.28;;;;;;;13.93;68.64;99020.25;4930097;28;20142;-86
2023/04/24 06:32:47;;;;;;;16.33;7.50;;;;;;;13.95;68.89;99031.59;4943486;28;20043;-86
2023/04/24 06:35:14;;;;;;;15.43;5.97;;;;;;;14.02;68.80;99032.53;4952798;28;20141;-86
2023/04/24 06:37:42;;;;;;;20.10;7.97;;;;;;;14.08;68.81;99026.47;4925261;28;20058;-86
2023/04/24 06:40:09;;;;;;;17.40;6.63;;;;;;;14.00;67.74;99035.38;4952698;28;20098;-85
2023/04/24 06:42:36;;;;;;;14.18;6.57;;;;;;;14.13;67.97;99032.13;4935553;28;20058;-85
2023/04/24 06:45:03;;;;;;;16.73;6.68;;;;;;;14.16;67.50;99030.94;4948141;28;20078;-85
2023/04/24 06:47:31;;;;;;;13.10;6.25;;;;;;;14.07;67.79;99035.50;4959218;28;20490;-85
2023/04/24 06:49:58;;;;;;;15.73;6.47;;;;;;;13.97;67.99;99032.22;4947745;28;20046;-85
2023/04/24 06:52:24;;;;;;;16.42;6.78;;;;;;;13.96;67.71;99038.56;4954834;28;20059;-86
2023/04/24 06:54:51;;;;;;;12.20;7.03;;;;;;;13.96;67.75;99039.41;4953753;28;20059;-86
2023/04/24 06:57:18;;;;;;;14.77;6.05;;;;;;;13.87;67.59;99035.13;4922703;28;20132;-86
2023/04/24 06:59:45;;;;;;;13.30;5.63;;;;;;;13.80;67.99;99039.50;4944132;28;20042;-86
2023/04/24 07:02:11;;;;;;;15.18;7.78;;;;;;;13.84;67.57;99046.13;4958025;28;20556;-86
2023/04/24 07:04:38;;;;;;;15.13;5.32;;;;;;;13.81;67.71;99041.16;4936956;28;20046;-86
2023/04/24 07:07:06;;;;;;;13.25;6.35;;;;;;;13.83;67.79;99039.16;4955054;28;20138;-85
2023/04/24 07:09:35;;;;;;;11.05;6.13;;;;;;;13.86;67.78;99044.13;4940063;28;20039;-85
2023/04/24 07:12:01;;;;;;;15.77;6.65;;;;;;;13.76;67.55;99049.69;4943515;28;20121;-86
2023/04/24 07:14:28;;;;;;;12.60;6.20;;;;;;;13.83;66.94;99049.81;4948719;28;20042;-86
2023/04/24 07:16:56;;;;;;;9.98;5.65;;;;;;;13.90;67.06;99046.28;4959900;28;20046;-86
2023/04/24 07:19:23;;;;;;;11.15;6.45;;;;;;;13.88;66.84;99048.28;4943856;28;20086;-85
2023/04/24 07:21:50;;;;;;;14.30;5.95;;;;;;;13.89;66.57;99041.97;4972090;28;20117;-86
2023/04/24 07:24:17;;;;;;;15.63;5.75;;;;;;;13.82;66.01;99049.00;4931028;28;20487;-86
2023/04/24 07:26:46;;;;;;;10.07;4.97;;;;;;;13.85;66.08;99045.16;4942417;28;20070;-86
2023/04/24 07:29:13;;;;;;;13.10;5.60;;;;;;;13.73;64.58;99049.22;4956190;28;20450;-85
2023/04/24 07:31:41;;;;;;;9.32;5.25;;;;;;;13.83;65.58;99039.16;4946224;28;20041;-85
2023/04/24 07:34:07;;;;;;;10.50;4.70;;;;;;;13.85;65.67;99045.16;4959615;28;20050;-85
2023/04/24 07:36:34;;;;;;;13.48;4.40;;;;;;;13.85;65.52;99047.81;4969946;28;20558;-85
2023/04/24 07:39:01;;;;;;;14.45;4.93;;;;;;;13.68;64.89;99052.41;4961228;28;20047;-86
2023/04/24 07:41:28;;;;;;;6.97;4.13;;;;;;;13.74;65.13;99053.53;4959745;28;20050;-86
2023/04/24 07:43:54;;;;;;;12.23;4.85;;;;;;;13.70;64.87;99052.25;4955745;28;20073;-85
2023/04/24 07:46:21;;;;;;;8.68;4.30;;;;;;;13.68;64.82;99050.56;4954568;28;20055;-86
2023/04/24 07:48:48;;;;;;;8.75;3.63;;;;;;;13.81;64.58;99052.66;4940664;28;20042;-85
2023/04/24 07:51:27;;;;;;;11.35;3.95;;;;;;;13.86;64.18;99063.63;4958857;28;20399;-86
2023/04/24 07:53:57;;;;;;;6.10;3.55;;;;;;;13.80;63.86;99063.53;4953271;28;20054;-85
2023/04/24 07:56:24;;;;;;;5.93;3.25;;;;;;;13.81;63.65;99074.00;4947197;28;20109;-85
2023/04/24 07:58:53;;;;;;;8.55;3.92;;;;;;;13.77;63.53;99101.25;4948419;28;20178;-86
2023/04/24 08:01:20;;;;;;;4.88;3.00;;;;;;;13.74;63.76;99112.22;4956058;28;20079;-85
2023/04/24 08:03:47;;;;;;;6.75;2.40;;;;;;;13.67;64.11;99122.78;4938774;28;20117;-86
2023/04/24 08:06:14;;;;;;;5.95;2.63;;;;;;;13.64;64.24;99125.81;4963123;28;20130;-86
2023/04/24 08:08:41;;;;;;;6.93;2.72;;;;;;;13.52;63.40;99120.00;4953470;28;20502;-85
2023/04/24 08:11:07;;;;;;;5.20;3.50;;;;;;;13.29;64.96;99122.56;4962804;28;20057;-85
2023/04/24 08:13:34;;;;;;;9.48;2.38;;;;;;;13.35;64.88;99129.88;4954600;28;20520;-85
2023/04/24 08:16:01;;;;;;;6.97;2.55;;;;;;;13.30;66.17;99124.22;4956427;28;20463;-85
2023/04/24 08:18:28;;;;;;;10.35;2.60;;;;;;;13.35;66.32;99123.72;4957030;28;20047;-85
2023/04/24 08:20:55;;;;;;;8.27;2.60;;;;;;;13.45;66.59;99127.03;4961649;28;20138;-85
2023/04/24 08:23:22;;;;;;;3.55;2.40;;;;;;;13.39;65.87;99123.22;4969358;28;20047;-86
2023/04/24 08:25:49;;;;;;;5.20;2.47;;;;;;;13.46;66.67;99126.03;4932471;28;20471;-85
2023/04/24 08:28:19;;;;;;;4.78;2.72;;;;;;;13.50;66.81;99131.84;4956637;28;20088;-85
2023/04/24 08:30:54;;;;;;;5.10;3.65;;;;;;;13.46;66.69;99118.88;4962565;28;20782;-86
2023/04/24 08:33:24;;;;;;;5.88;2.88;;;;;;;13.53;66.63;99115.50;4952943;28;20043;-86
2023/04/24 08:35:51;;;;;;;5.82;3.15;;;;;;;13.65;66.30;99120.28;4956141;28;20053;-86
2023/04/24 08:38:17;;;;;;;5.10;3.17;;;;;;;13.74;65.98;99112.22;4943100;28;20507;-85
2023/04/24 08:40:45;;;;;;;7.35;3.58;;;;;;;13.77;66.05;99117.25;4946313;28;20078;-86
2023/04/24 08:43:13;;;;;;;5.07;3.30;;;;;;;13.87;65.62;99117.88;4955309;28;20042;-86
2023/04/24 08:45:40;;;;;;;6.43;3.10;;;;;;;13.93;65.37;99127.84;4960626;28;20454;-85
2023/04/24 08:48:07;;;;;;;5.13;3.10;;;;;;;13.91;65.16;99113.81;4955919;28;20039;-86
2023/04/24 08:50:50;;;;;;;12.18;3.55;;;;;;;13.99;64.54;99120.97;4953770;28;20035;-85
2023/04/24 08:53:18;;;;;;;5.18;2.60;;;;;;;13.95;63.84;99114.31;4942001;28;20051;-86
2023/04/24 08:55:47;;;;;;;5.55;2.80;;;;;;;14.05;63.90;99120.28;4962193;28;20037;-85
2023/04/24 08:58:16;;;;;;;5.78;2.97;;;;;;;14.14;63.11;99121.03;4956449;28;20051;-85
2023/04/24 09:00:46;;;;;;;4.68;2.95;;;;;;;14.15;63.19;99114.72;4941436;28;20125;-85
2023/04/24 09:03:16;;;;;;;5.35;3.03;;;;;;;13.95;62.06;99120.50;4955009;28;20130;-85
2023/04/24 09:05:46;;;;;;;7.50;3.13;;;;;;;13.98;62.06;99116.63;4955961;28;20046;-85
2023/04/24 09:08:14;;;;;;;5.35;3.08;;;;;;;14.07;61.65;99124.44;4947648;28;20046;-85
2023/04/24 09:10:41;;;;;;;7.60;3.15;;;;;;;14.10;62.17;99123.25;4953779;28;20502;-86
2023/04/24 09:13:11;;;;;;;5.68;2.33;;;;;;;14.22;61.16;99135.19;4952857;28;20050;-86
2023/04/24 09:15:41;;;;;;;8.07;2.83;;;;;;;14.07;61.15;99118.25;4961052;28;20057;-85
2023/04/24 09:18:07;;;;;;;4.88;2.90;;;;;;;14.17;60.86;99142.03;4945547;28;20403;-86
2023/04/24 09:20:35;;;;;;;2.97;2.40;;;;;;;14.15;60.89;99130.75;4952047;28;20445;-86
2023/04/24 09:23:03;;;;;;;5.20;3.78;;;;;;;14.17;61.19;99142.91;4942566;28;20039;-86
2023/04/24 09:25:34;;;;;;;10.63;3.05;;;;;;;14.18;60.92;99157.06;4955169;28;20145;-86
2023/04/24 09:28:02;;;;;;;6.22;3.03;;;;;;;14.20;60.84;99142.53;4937727;28;20078;-86
2023/04/24 09:30:29;;;;;;;3.47;2.80;;;;;;;14.20;60.85;99142.53;4948682;28;20074;-86
2023/04/24 09:33:16;;;;;;;4.45;2.90;;;;;;;14.21;59.58;99133.50;4952911;28;20061;-86
2023/04/24 09:35:49;;;;;;;4.95;2.58;;;;;;;14.29;59.82;99140.66;4953656;28;20454;-85
2023/04/24 09:38:17;;;;;;;5.35;3.28;;;;;;;14.37;60.67;99137.09;4953701;28;20075;-84
2023/04/24 09:40:44;;;;;;;5.68;3.08;;;;;;;14.44;60.54;99135.38;4945875;28;20047;-86
2023/04/24 09:43:11;;;;;;;3.72;2.65;;;;;;;14.43;59.84;99149.75;4957510;28;20490;-85
2023/04/24 09:45:39;;;;;;;6.03;2.90;;;;;;;14.48;60.54;99144.72;4966622;28;20054;-86
2023/04/24 09:48:10;;;;;;;4.18;2.90;;;;;;;14.47;59.71;99146.53;4950862;28;20058;-86
2023/04/24 09:50:37;;;;;;;9.05;2.67;;;;;;;14.61;59.97;99163.66;4960750;28;20077;-86
2023/04/24 09:53:07;;;;;;;5.95;3.00;;;;;;;14.49;59.09;99147.19;4955263;28;20077;-86
2023/04/24 09:55:39;;;;;;;3.35;2.78;;;;;;;14.44;57.78;99162.91;4941925;28;20093;-85
2023/04/24 09:58:08;;;;;;;7.30;3.40;;;;;;;14.34;57.11;99173.00;4960925;28;20038;-85
2023/04/24 10:00:34;;;;;;;4.68;2.85;;;;;;;14.39;58.48;99175.13;4956587;28;20047;-85
2023/04/24 10:03:03;;;;;;;5.00;3.10;;;;;;;14.30;58.03;99164.50;4950555;28;20487;-86
2023/04/24 10:05:32;;;;;;;5.88;2.50;;;;;;;14.43;57.99;99157.75;4939084;28;20051;-86
2023/04/24 10:08:07;;;;;;;4.03;2.50;;;;;;;14.39;55.95;99159.94;4957453;28;20118;-85
2023/04/24 10:10:38;;;;;;;4.45;2.60;;;;;;;14.64;57.61;99190.03;4959237;28;20476;-86
2023/04/24 10:13:05;;;;;;;4.93;2.83;;;;;;;14.48;56.10;99174.09;4956004;28;20519;-84
2023/04/24 10:15:31;;;;;;;9.00;2.95;;;;;;;14.62;56.62;99176.00;4952003;28;20130;-86
2023/04/24 10:17:59;;;;;;;6.18;3.05;;;;;;;14.67;56.63;99200.34;4954559;28;20042;-86
2023/04/24 10:20:29;;;;;;;7.07;2.65;;;;;;;14.65;56.58;99198.88;4953215;28;20106;-85
2023/04/24 10:22:57;;;;;;;4.30;2.70;;;;;;;14.51;56.49;99193.25;4948560;28;20055;-84
2023/04/24 10:25:25;;;;;;;5.85;3.13;;;;;;;14.50;56.44;99204.97;4952986;28;20051;-85
2023/04/24 10:27:57;;;;;;;3.95;2.88;;;;;;;14.63;57.14;99211.56;4940394;28;20053;-85
2023/04/24 10:30:24;;;;;;;7.30;3.15;;;;;;;14.57;57.17;99209.63;4947480;28;20093;-86
2023/04/24 10:32:50;;;;;;;5.32;3.25;;;;;;;14.37;57.01;99214.53;4940047;28;20486;-85
2023/04/24 10:35:19;;;;;;;6.82;3.35;;;;;;;14.56;57.29;99208.78;4955685;28;20050;-85
2023/04/24 10:37:49;;;;;;;7.45;3.50;;;;;;;14.59;57.05;99212.94;4945320;28;20047;-85
2023/04/24 10:40:19;;;;;;;10.23;3.92;;;;;;;14.45;56.55;99210.00;4955075;28;20407;-85
2023/04/24 10:42:52;;;;;;;9.48;3.92;;;;;;;14.36;55.79;99211.03;4946223;28;20788;-85
2023/04/24 10:45:22;;;;;;;8.27;3.50;;;;;;;14.50;56.82;99226.34;4970592;28;20451;-85
2023/04/24 10:48:02;;;;;;;8.73;4.25;;;;;;;14.41;56.58;99218.53;4953248;28;20055;-85
2023/04/24 10:50:44;;;;;;;7.15;3.63;;;;;;;14.40;55.60;99232.88;4948150;28;20031;-85
2023/04/24 10:53:23;;;;;;;6.93;3.80;;;;;;;14.41;56.07;99222.03;4953451;28;20046;-85
2023/04/24 10:55:51;;;;;;;7.28;3.80;;;;;;;14.42;56.07;99233.53;4955510;28;20038;-85
2023/04/24 10:58:37;;;;;;;8.77;3.63;;;;;;;14.42;55.57;99228.19;4952406;28;20050;-85
2023/04/24 11:01:04;;;;;;;16.50;8.00;;;;;;;14.38;55.49;99237.59;4941458;28;20406;-85
2023/04/24 11:03:34;;;;;;;8.23;3.72;;;;;;;14.38;55.73;99237.59;4945055;28;20434;-85
2023/04/24 11:06:03;;;;;;;7.65;4.80;;;;;;;14.20;55.41;99233.34;4945684;28;20038;-85
2023/04/24 11:08:44;;;;;;;6.38;3.88;;;;;;;14.08;55.15;99243.56;4946416;28;20111;-86
2023/04/24 11:11:13;;;;;;;7.78;3.65;;;;;;;14.19;55.95;99268.22;4940479;28;20042;-85
2023/04/24 11:13:55;;;;;;;5.78;3.30;;;;;;;14.03;56.44;99290.47;4949017;28;20680;-86
2023/04/24 11:16:33;;;;;;;5.80;3.63;;;;;;;14.00;58.77;99288.13;4956815;28;20058;-86
2023/04/24 11:19:16;;;;;;;6.45;3.67;;;;;;;13.57;62.21;99296.38;4954747;28;20035;-85
2023/04/24 11:22:03;;;;;;;6.30;3.85;;;;;;;13.71;63.84;99302.03;4951658;28;20098;-85
2023/04/24 11:24:40;;;;;;;6.00;4.00;;;;;;;13.80;61.60;99295.69;4952781;28;20046;-84
2023/04/24 11:27:19;;;;;;;6.93;4.07;;;;;;;13.80;63.28;99299.19;4969891;28;20133;-85
2023/04/24 11:29:49;;;;;;;7.28;4.20;;;;;;;13.92;63.71;99285.47;4945084;28;20110;-85
2023/04/24 11:32:19;;;;;;;6.70;4.22;;;;;;;14.02;63.17;99286.97;4965497;28;20412;-85
2023/04/24 11:34:47;;;;;;;8.10;3.78;;;;;;;14.16;63.72;99289.91;4953897;28;20050;-85
2023/04/24 11:37:15;;;;;;;7.15;4.60;;;;;;;14.23;62.85;99288.22;4954694;28;20050;-85
2023/04/24 11:39:41;;;;;;;8.55;4.65;;;;;;;14.15;62.69;99290.94;4954426;28;20054;-85